sensor_id;sensor_type;location;lat;lon;timestamp;P1;durP1;ratioP1;P2;durP2;ratioP2
27428;SDS011;14881;48.092;11.574;2023-06-24T00:00:19;6.90;;;4.95;;
27428;SDS011;14881;48.092;11.574;2023-06-24T00:02:46;6.63;;;4.93;;
27428;SDS011;14881;48.092;11.574;2023-06-24T00:05:13;6.40;;;5.55;;
27428;SDS011;14881;48.092;11.574;2023-06-24T00:07:39;6.25;;;5.50;;
27428;SDS011;14881;48.092;11.574;2023-06-24T00:10:10;7.45;;;5.30;;
27428;SDS011;14881;48.092;11.574;2023-06-24T00:12:37;5.70;;;4.80;;
27428;SDS011;14881;48.092;11.574;2023-06-24T00:15:05;7.40;;;5.55;;
27428;SDS011;14881;48.092;11.574;2023-06-24T00:17:35;8.30;;;6.10;;
27428;SDS011;14881;48.092;11.574;2023-06-24T00:20:01;7.60;;;5.65;;
27428;SDS011;14881;48.092;11.574;2023-06-24T00:22:32;9.23;;;5.88;;
27428;SDS011;14881;48.092;11.574;2023-06-24T00:24:58;6.70;;;5.55;;
27428;SDS011;14881;48.092;11.574;2023-06-24T00:27:26;8.38;;;4.90;;
27428;SDS011;14881;48.092;11.574;2023-06-24T00:29:52;6.97;;;5.57;;
27428;SDS011;14881;48.092;11.574;2023-06-24T00:32:18;7.70;;;5.25;;
27428;SDS011;14881;48.092;11.574;2023-06-24T00:34:45;5.53;;;5.03;;
27428;SDS011;14881;48.092;11.574;2023-06-24T00:37:13;5.55;;;4.82;;
27428;SDS011;14881;48.092;11.574;2023-06-24T00:39:41;5.32;;;4.82;;
27428;SDS011;14881;48.092;11.574;2023-06-24T00:42:07;5.68;;;4.78;;
27428;SDS011;14881;48.092;11.574;2023-06-24T00:44:34;5.30;;;4.80;;
27428;SDS011;14881;48.092;11.574;2023-06-24T00:47:03;5.65;;;4.88;;
27428;SDS011;14881;48.092;11.574;2023-06-24T00:49:30;6.22;;;4.75;;
27428;SDS011;14881;48.092;11.574;2023-06-24T00:51:56;7.03;;;5.10;;
27428;SDS011;14881;48.092;11.574;2023-06-24T00:54:22;5.53;;;4.97;;
27428;SDS011;14881;48.092;11.574;2023-06-24T00:56:57;5.47;;;4.85;;
27428;SDS011;14881;48.092;11.574;2023-06-24T00:59:25;6.10;;;4.95;;
27428;SDS011;14881;48.092;11.574;2023-06-24T01:01:57;6.82;;;5.40;;
27428;SDS011;14881;48.092;11.574;2023-06-24T01:04:30;5.78;;;4.88;;
27428;SDS011;14881;48.092;11.574;2023-06-24T01:06:58;5.45;;;4.50;;
27428;SDS011;14881;48.092;11.574;2023-06-24T01:09:25;5.65;;;4.65;;
27428;SDS011;14881;48.092;11.574;2023-06-24T01:11:52;5.65;;;4.80;;
27428;SDS011;14881;48.092;11.574;2023-06-24T01:14:19;5.63;;;4.88;;
27428;SDS011;14881;48.092;11.574;2023-06-24T01:16:48;5.32;;;4.82;;
27428;SDS011;14881;48.092;11.574;2023-06-24T01:19:28;5.97;;;4.43;;
27428;SDS011;14881;48.092;11.574;2023-06-24T01:22:07;5.18;;;4.68;;
27428;SDS011;14881;48.092;11.574;2023-06-24T01:24:57;5.95;;;4.97;;
27428;SDS011;14881;48.092;11.574;2023-06-24T01:27:39;5.97;;;4.63;;
27428;SDS011;14881;48.092;11.574;2023-06-24T01:32:59;6.38;;;4.50;;
27428;SDS011;14881;48.092;11.574;2023-06-24T01:35:31;6.32;;;4.97;;
27428;SDS011;14881;48.092;11.574;2023-06-24T01:38:01;5.03;;;4.45;;
27428;SDS011;14881;48.092;11.574;2023-06-24T01:40:34;6.35;;;4.72;;
27428;SDS011;14881;48.092;11.574;2023-06-24T01:43:06;6.75;;;4.63;;
27428;SDS011;14881;48.092;11.574;2023-06-24T01:45:36;6.30;;;4.53;;
27428;SDS011;14881;48.092;11.574;2023-06-24T01:48:07;4.93;;;4.25;;
27428;SDS011;14881;48.092;11.574;2023-06-24T01:50:48;5.28;;;4.78;;
27428;SDS011;14881;48.092;11.574;2023-06-24T01:53:21;5.82;;;5.03;;
27428;SDS011;14881;48.092;11.574;2023-06-24T01:55:48;5.63;;;4.85;;
27428;SDS011;14881;48.092;11.574;2023-06-24T01:58:18;6.25;;;5.25;;
27428;SDS011;14881;48.092;11.574;2023-06-24T02:00:47;6.22;;;5.47;;
27428;SDS011;14881;48.092;11.574;2023-06-24T02:03:15;5.57;;;5.07;;
27428;SDS011;14881;48.092;11.574;2023-06-24T02:05:43;5.28;;;4.78;;
27428;SDS011;14881;48.092;11.574;2023-06-24T02:08:12;6.18;;;5.40;;
27428;SDS011;14881;48.092;11.574;2023-06-24T02:10:40;5.45;;;4.88;;
27428;SDS011;14881;48.092;11.574;2023-06-24T02:13:09;5.80;;;5.20;;
27428;SDS011;14881;48.092;11.574;2023-06-24T02:15:37;5.57;;;5.03;;
27428;SDS011;14881;48.092;11.574;2023-06-24T02:18:05;6.05;;;5.10;;
27428;SDS011;14881;48.092;11.574;2023-06-24T02:20:35;6.22;;;5.55;;
27428;SDS011;14881;48.092;11.574;2023-06-24T02:23:04;7.55;;;5.40;;
27428;SDS011;14881;48.092;11.574;2023-06-24T02:25:34;6.95;;;5.68;;
27428;SDS011;14881;48.092;11.574;2023-06-24T02:28:04;4.90;;;4.40;;
27428;SDS011;14881;48.092;11.574;2023-06-24T02:30:32;6.28;;;5.03;;
27428;SDS011;14881;48.092;11.574;2023-06-24T02:33:00;6.80;;;5.78;;
27428;SDS011;14881;48.092;11.574;2023-06-24T02:35:26;5.95;;;5.32;;
27428;SDS011;14881;48.092;11.574;2023-06-24T02:37:53;9.63;;;5.13;;
27428;SDS011;14881;48.092;11.574;2023-06-24T02:40:20;5.78;;;5.20;;
27428;SDS011;14881;48.092;11.574;2023-06-24T02:42:46;6.97;;;5.60;;
27428;SDS011;14881;48.092;11.574;2023-06-24T02:45:13;5.53;;;5.03;;
27428;SDS011;14881;48.092;11.574;2023-06-24T02:47:40;6.38;;;5.60;;
27428;SDS011;14881;48.092;11.574;2023-06-24T02:50:09;5.88;;;5.28;;
27428;SDS011;14881;48.092;11.574;2023-06-24T02:52:37;7.93;;;5.50;;
27428;SDS011;14881;48.092;11.574;2023-06-24T02:55:05;8.20;;;5.60;;
27428;SDS011;14881;48.092;11.574;2023-06-24T02:57:33;6.13;;;5.38;;
27428;SDS011;14881;48.092;11.574;2023-06-24T03:00:01;6.68;;;5.25;;
27428;SDS011;14881;48.092;11.574;2023-06-24T03:02:29;6.30;;;5.57;;
27428;SDS011;14881;48.092;11.574;2023-06-24T03:04:56;7.60;;;5.97;;
27428;SDS011;14881;48.092;11.574;2023-06-24T03:07:23;7.10;;;5.47;;
27428;SDS011;14881;48.092;11.574;2023-06-24T03:09:51;8.02;;;6.55;;
27428;SDS011;14881;48.092;11.574;2023-06-24T03:12:18;5.88;;;5.32;;
27428;SDS011;14881;48.092;11.574;2023-06-24T03:14:44;6.53;;;5.65;;
27428;SDS011;14881;48.092;11.574;2023-06-24T03:17:11;7.25;;;5.15;;
27428;SDS011;14881;48.092;11.574;2023-06-24T03:19:37;7.97;;;5.68;;
27428;SDS011;14881;48.092;11.574;2023-06-24T03:22:06;6.55;;;5.85;;
27428;SDS011;14881;48.092;11.574;2023-06-24T03:24:33;6.93;;;5.65;;
27428;SDS011;14881;48.092;11.574;2023-06-24T03:26:59;7.50;;;6.00;;
27428;SDS011;14881;48.092;11.574;2023-06-24T03:29:26;7.72;;;5.93;;
27428;SDS011;14881;48.092;11.574;2023-06-24T03:31:52;6.78;;;5.75;;
27428;SDS011;14881;48.092;11.574;2023-06-24T03:34:19;6.18;;;5.57;;
27428;SDS011;14881;48.092;11.574;2023-06-24T03:36:45;6.32;;;5.63;;
27428;SDS011;14881;48.092;11.574;2023-06-24T03:39:12;7.53;;;5.93;;
27428;SDS011;14881;48.092;11.574;2023-06-24T03:41:38;6.10;;;5.50;;
27428;SDS011;14881;48.092;11.574;2023-06-24T03:44:05;7.10;;;5.47;;
27428;SDS011;14881;48.092;11.574;2023-06-24T03:46:32;7.25;;;6.05;;
27428;SDS011;14881;48.092;11.574;2023-06-24T03:48:58;9.00;;;6.10;;
27428;SDS011;14881;48.092;11.574;2023-06-24T03:51:25;7.68;;;6.28;;
27428;SDS011;14881;48.092;11.574;2023-06-24T03:53:51;6.85;;;5.53;;
27428;SDS011;14881;48.092;11.574;2023-06-24T03:56:18;5.78;;;5.28;;
27428;SDS011;14881;48.092;11.574;2023-06-24T03:58:46;6.75;;;6.05;;
27428;SDS011;14881;48.092;11.574;2023-06-24T04:01:13;6.38;;;5.78;;
27428;SDS011;14881;48.092;11.574;2023-06-24T04:03:40;7.28;;;5.40;;
27428;SDS011;14881;48.092;11.574;2023-06-24T04:06:06;6.00;;;5.40;;
27428;SDS011;14881;48.092;11.574;2023-06-24T04:08:33;6.50;;;5.30;;
27428;SDS011;14881;48.092;11.574;2023-06-24T04:10:59;7.47;;;6.03;;
27428;SDS011;14881;48.092;11.574;2023-06-24T04:13:26;5.90;;;5.30;;
27428;SDS011;14881;48.092;11.574;2023-06-24T04:15:52;6.15;;;5.53;;
27428;SDS011;14881;48.092;11.574;2023-06-24T04:18:19;7.22;;;5.38;;
27428;SDS011;14881;48.092;11.574;2023-06-24T04:20:46;6.18;;;5.57;;
27428;SDS011;14881;48.092;11.574;2023-06-24T04:23:13;7.38;;;6.00;;
27428;SDS011;14881;48.092;11.574;2023-06-24T04:25:39;6.07;;;5.32;;
27428;SDS011;14881;48.092;11.574;2023-06-24T04:28:06;6.57;;;5.72;;
27428;SDS011;14881;48.092;11.574;2023-06-24T04:30:32;7.22;;;5.97;;
27428;SDS011;14881;48.092;11.574;2023-06-24T04:33:00;6.20;;;5.60;;
27428;SDS011;14881;48.092;11.574;2023-06-24T04:35:27;7.32;;;5.50;;
27428;SDS011;14881;48.092;11.574;2023-06-24T04:37:56;7.13;;;6.13;;
27428;SDS011;14881;48.092;11.574;2023-06-24T04:40:22;7.00;;;5.60;;
27428;SDS011;14881;48.092;11.574;2023-06-24T04:42:49;6.75;;;5.47;;
27428;SDS011;14881;48.092;11.574;2023-06-24T04:45:15;6.20;;;5.13;;
27428;SDS011;14881;48.092;11.574;2023-06-24T04:47:45;7.90;;;5.85;;
27428;SDS011;14881;48.092;11.574;2023-06-24T04:50:11;6.25;;;5.63;;
27428;SDS011;14881;48.092;11.574;2023-06-24T04:52:38;6.65;;;5.53;;
27428;SDS011;14881;48.092;11.574;2023-06-24T04:55:06;5.95;;;5.00;;
27428;SDS011;14881;48.092;11.574;2023-06-24T04:57:33;6.55;;;5.90;;
27428;SDS011;14881;48.092;11.574;2023-06-24T05:00:00;6.85;;;5.75;;
27428;SDS011;14881;48.092;11.574;2023-06-24T05:02:26;7.13;;;5.97;;
27428;SDS011;14881;48.092;11.574;2023-06-24T05:04:58;6.70;;;5.10;;
27428;SDS011;14881;48.092;11.574;2023-06-24T05:07:24;8.80;;;5.50;;
27428;SDS011;14881;48.092;11.574;2023-06-24T05:09:51;5.90;;;5.30;;
27428;SDS011;14881;48.092;11.574;2023-06-24T05:12:18;5.70;;;5.10;;
27428;SDS011;14881;48.092;11.574;2023-06-24T05:14:48;7.10;;;5.32;;
27428;SDS011;14881;48.092;11.574;2023-06-24T05:17:16;5.95;;;5.40;;
27428;SDS011;14881;48.092;11.574;2023-06-24T05:19:42;6.70;;;5.35;;
27428;SDS011;14881;48.092;11.574;2023-06-24T05:22:08;6.45;;;5.80;;
27428;SDS011;14881;48.092;11.574;2023-06-24T05:24:35;5.05;;;4.55;;
27428;SDS011;14881;48.092;11.574;2023-06-24T05:27:03;7.75;;;5.60;;
27428;SDS011;14881;48.092;11.574;2023-06-24T05:29:31;6.30;;;5.28;;
27428;SDS011;14881;48.092;11.574;2023-06-24T05:31:58;6.07;;;5.07;;
27428;SDS011;14881;48.092;11.574;2023-06-24T05:34:25;5.75;;;4.63;;
27428;SDS011;14881;48.092;11.574;2023-06-24T05:36:51;5.38;;;4.68;;
27428;SDS011;14881;48.092;11.574;2023-06-24T05:39:18;5.72;;;5.13;;
27428;SDS011;14881;48.092;11.574;2023-06-24T05:41:44;5.30;;;4.80;;
27428;SDS011;14881;48.092;11.574;2023-06-24T05:44:11;6.40;;;5.55;;
27428;SDS011;14881;48.092;11.574;2023-06-24T05:46:38;6.95;;;5.72;;
27428;SDS011;14881;48.092;11.574;2023-06-24T05:49:04;9.65;;;5.38;;
27428;SDS011;14881;48.092;11.574;2023-06-24T05:51:31;5.50;;;4.90;;
27428;SDS011;14881;48.092;11.574;2023-06-24T05:53:57;8.98;;;5.32;;
27428;SDS011;14881;48.092;11.574;2023-06-24T05:56:23;6.10;;;4.78;;
27428;SDS011;14881;48.092;11.574;2023-06-24T05:58:50;7.13;;;5.75;;
27428;SDS011;14881;48.092;11.574;2023-06-24T06:01:17;5.95;;;4.97;;
27428;SDS011;14881;48.092;11.574;2023-06-24T06:03:44;6.47;;;5.25;;
27428;SDS011;14881;48.092;11.574;2023-06-24T06:06:10;5.72;;;5.03;;
27428;SDS011;14881;48.092;11.574;2023-06-24T06:08:36;7.45;;;5.28;;
27428;SDS011;14881;48.092;11.574;2023-06-24T06:11:03;7.25;;;5.35;;
27428;SDS011;14881;48.092;11.574;2023-06-24T06:13:29;6.63;;;4.95;;
27428;SDS011;14881;48.092;11.574;2023-06-24T06:15:56;7.97;;;5.07;;
27428;SDS011;14881;48.092;11.574;2023-06-24T06:18:23;5.18;;;4.68;;
27428;SDS011;14881;48.092;11.574;2023-06-24T06:20:50;5.95;;;5.10;;
27428;SDS011;14881;48.092;11.574;2023-06-24T06:23:17;5.47;;;4.78;;
27428;SDS011;14881;48.092;11.574;2023-06-24T06:25:43;7.90;;;5.65;;
27428;SDS011;14881;48.092;11.574;2023-06-24T06:28:13;5.03;;;4.50;;
27428;SDS011;14881;48.092;11.574;2023-06-24T06:30:39;5.95;;;5.15;;
27428;SDS011;14881;48.092;11.574;2023-06-24T06:33:06;6.78;;;4.60;;
27428;SDS011;14881;48.092;11.574;2023-06-24T06:35:32;4.60;;;4.07;;
27428;SDS011;14881;48.092;11.574;2023-06-24T06:38:00;6.15;;;4.68;;
27428;SDS011;14881;48.092;11.574;2023-06-24T06:40:26;4.57;;;4.18;;
27428;SDS011;14881;48.092;11.574;2023-06-24T06:42:54;5.45;;;4.28;;
27428;SDS011;14881;48.092;11.574;2023-06-24T06:45:20;4.95;;;4.43;;
27428;SDS011;14881;48.092;11.574;2023-06-24T06:47:46;5.20;;;4.70;;
27428;SDS011;14881;48.092;11.574;2023-06-24T06:50:13;5.78;;;4.78;;
27428;SDS011;14881;48.092;11.574;2023-06-24T06:52:39;5.15;;;4.65;;
27428;SDS011;14881;48.092;11.574;2023-06-24T06:55:07;5.13;;;4.55;;
27428;SDS011;14881;48.092;11.574;2023-06-24T06:57:34;5.60;;;4.28;;
27428;SDS011;14881;48.092;11.574;2023-06-24T07:00:00;5.07;;;4.43;;
27428;SDS011;14881;48.092;11.574;2023-06-24T07:02:26;6.10;;;4.68;;
27428;SDS011;14881;48.092;11.574;2023-06-24T07:04:53;4.95;;;4.45;;
27428;SDS011;14881;48.092;11.574;2023-06-24T07:07:19;4.75;;;4.32;;
27428;SDS011;14881;48.092;11.574;2023-06-24T07:09:46;5.03;;;4.53;;
27428;SDS011;14881;48.092;11.574;2023-06-24T07:12:14;5.80;;;4.72;;
27428;SDS011;14881;48.092;11.574;2023-06-24T07:14:40;4.95;;;3.92;;
27428;SDS011;14881;48.092;11.574;2023-06-24T07:17:07;5.05;;;4.55;;
27428;SDS011;14881;48.092;11.574;2023-06-24T07:19:34;5.57;;;4.15;;
27428;SDS011;14881;48.092;11.574;2023-06-24T07:22:00;4.63;;;4.22;;
27428;SDS011;14881;48.092;11.574;2023-06-24T07:24:26;4.22;;;3.80;;
27428;SDS011;14881;48.092;11.574;2023-06-24T07:26:53;4.35;;;3.83;;
27428;SDS011;14881;48.092;11.574;2023-06-24T07:29:20;4.35;;;3.95;;
27428;SDS011;14881;48.092;11.574;2023-06-24T07:31:46;4.72;;;3.65;;
27428;SDS011;14881;48.092;11.574;2023-06-24T07:34:12;3.70;;;3.40;;
27428;SDS011;14881;48.092;11.574;2023-06-24T07:36:39;4.72;;;3.60;;
27428;SDS011;14881;48.092;11.574;2023-06-24T07:39:05;5.68;;;3.95;;
27428;SDS011;14881;48.092;11.574;2023-06-24T07:41:32;4.40;;;4.00;;
27428;SDS011;14881;48.092;11.574;2023-06-24T07:43:58;4.25;;;3.88;;
27428;SDS011;14881;48.092;11.574;2023-06-24T07:46:25;7.13;;;3.75;;
27428;SDS011;14881;48.092;11.574;2023-06-24T07:48:54;4.35;;;3.85;;
27428;SDS011;14881;48.092;11.574;2023-06-24T07:51:20;4.35;;;3.95;;
27428;SDS011;14881;48.092;11.574;2023-06-24T07:53:47;4.38;;;3.80;;
27428;SDS011;14881;48.092;11.574;2023-06-24T07:56:13;3.78;;;3.42;;
27428;SDS011;14881;48.092;11.574;2023-06-24T07:58:40;5.03;;;3.67;;
27428;SDS011;14881;48.092;11.574;2023-06-24T08:01:06;8.77;;;3.40;;
27428;SDS011;14881;48.092;11.574;2023-06-24T08:03:33;5.85;;;3.60;;
27428;SDS011;14881;48.092;11.574;2023-06-24T08:06:02;5.53;;;3.60;;
27428;SDS011;14881;48.092;11.574;2023-06-24T08:08:29;6.53;;;4.07;;
27428;SDS011;14881;48.092;11.574;2023-06-24T08:10:55;4.35;;;3.60;;
27428;SDS011;14881;48.092;11.574;2023-06-24T08:13:21;4.05;;;3.58;;
27428;SDS011;14881;48.092;11.574;2023-06-24T08:15:48;5.07;;;3.75;;
27428;SDS011;14881;48.092;11.574;2023-06-24T08:18:14;5.95;;;4.00;;
27428;SDS011;14881;48.092;11.574;2023-06-24T08:20:42;4.97;;;4.07;;
27428;SDS011;14881;48.092;11.574;2023-06-24T08:23:08;4.00;;;3.55;;
27428;SDS011;14881;48.092;11.574;2023-06-24T08:25:35;4.97;;;4.13;;
27428;SDS011;14881;48.092;11.574;2023-06-24T08:28:01;4.00;;;3.40;;
27428;SDS011;14881;48.092;11.574;2023-06-24T08:30:28;3.97;;;3.58;;
27428;SDS011;14881;48.092;11.574;2023-06-24T08:35:22;4.35;;;3.92;;
27428;SDS011;14881;48.092;11.574;2023-06-24T08:37:49;4.45;;;4.05;;
27428;SDS011;14881;48.092;11.574;2023-06-24T08:40:15;11.10;;;4.05;;
27428;SDS011;14881;48.092;11.574;2023-06-24T08:42:43;4.43;;;4.03;;
27428;SDS011;14881;48.092;11.574;2023-06-24T08:45:10;5.28;;;4.03;;
27428;SDS011;14881;48.092;11.574;2023-06-24T08:47:36;5.57;;;3.95;;
27428;SDS011;14881;48.092;11.574;2023-06-24T08:50:04;5.38;;;4.38;;
27428;SDS011;14881;48.092;11.574;2023-06-24T08:52:35;4.18;;;3.78;;
27428;SDS011;14881;48.092;11.574;2023-06-24T08:55:06;4.40;;;3.95;;
27428;SDS011;14881;48.092;11.574;2023-06-24T08:57:35;4.43;;;3.80;;
27428;SDS011;14881;48.092;11.574;2023-06-24T09:00:02;6.40;;;4.03;;
27428;SDS011;14881;48.092;11.574;2023-06-24T09:02:30;5.07;;;4.00;;
27428;SDS011;14881;48.092;11.574;2023-06-24T09:04:58;4.60;;;4.13;;
27428;SDS011;14881;48.092;11.574;2023-06-24T09:07:27;4.40;;;4.00;;
27428;SDS011;14881;48.092;11.574;2023-06-24T09:09:54;4.40;;;4.00;;
27428;SDS011;14881;48.092;11.574;2023-06-24T09:12:23;6.22;;;4.55;;
27428;SDS011;14881;48.092;11.574;2023-06-24T09:14:50;4.57;;;3.92;;
27428;SDS011;14881;48.092;11.574;2023-06-24T09:17:17;5.32;;;4.28;;
27428;SDS011;14881;48.092;11.574;2023-06-24T09:19:47;5.57;;;4.90;;
27428;SDS011;14881;48.092;11.574;2023-06-24T09:22:14;5.20;;;4.55;;
27428;SDS011;14881;48.092;11.574;2023-06-24T09:24:43;5.13;;;4.63;;
27428;SDS011;14881;48.092;11.574;2023-06-24T09:27:12;6.80;;;4.40;;
27428;SDS011;14881;48.092;11.574;2023-06-24T09:29:40;6.75;;;4.72;;
27428;SDS011;14881;48.092;11.574;2023-06-24T09:32:07;5.97;;;4.57;;
27428;SDS011;14881;48.092;11.574;2023-06-24T09:34:35;4.38;;;3.80;;
27428;SDS011;14881;48.092;11.574;2023-06-24T09:37:02;5.20;;;4.70;;
27428;SDS011;14881;48.092;11.574;2023-06-24T09:39:28;4.78;;;4.10;;
27428;SDS011;14881;48.092;11.574;2023-06-24T09:42:02;4.95;;;4.10;;
27428;SDS011;14881;48.092;11.574;2023-06-24T09:44:31;6.60;;;4.93;;
27428;SDS011;14881;48.092;11.574;2023-06-24T09:46:58;4.93;;;4.18;;
27428;SDS011;14881;48.092;11.574;2023-06-24T09:49:25;5.35;;;4.85;;
27428;SDS011;14881;48.092;11.574;2023-06-24T09:51:54;11.48;;;4.65;;
27428;SDS011;14881;48.092;11.574;2023-06-24T09:54:21;5.78;;;5.18;;
27428;SDS011;14881;48.092;11.574;2023-06-24T09:56:50;8.52;;;4.78;;
27428;SDS011;14881;48.092;11.574;2023-06-24T09:59:19;5.03;;;4.57;;
27428;SDS011;14881;48.092;11.574;2023-06-24T10:01:47;5.63;;;4.70;;
27428;SDS011;14881;48.092;11.574;2023-06-24T10:04:17;6.15;;;4.50;;
27428;SDS011;14881;48.092;11.574;2023-06-24T10:06:44;4.47;;;4.07;;
27428;SDS011;14881;48.092;11.574;2023-06-24T10:09:11;5.68;;;4.70;;
27428;SDS011;14881;48.092;11.574;2023-06-24T10:11:41;5.85;;;4.43;;
27428;SDS011;14881;48.092;11.574;2023-06-24T10:14:08;5.63;;;5.00;;
27428;SDS011;14881;48.092;11.574;2023-06-24T10:16:35;5.90;;;5.20;;
27428;SDS011;14881;48.092;11.574;2023-06-24T10:19:01;5.60;;;5.10;;
27428;SDS011;14881;48.092;11.574;2023-06-24T10:24:11;4.60;;;4.20;;
27428;SDS011;14881;48.092;11.574;2023-06-24T10:26:39;6.22;;;4.63;;
27428;SDS011;14881;48.092;11.574;2023-06-24T10:29:11;5.38;;;4.60;;
27428;SDS011;14881;48.092;11.574;2023-06-24T10:31:53;5.03;;;4.18;;
27428;SDS011;14881;48.092;11.574;2023-06-24T10:34:24;6.15;;;4.80;;
27428;SDS011;14881;48.092;11.574;2023-06-24T10:36:54;5.85;;;4.95;;
27428;SDS011;14881;48.092;11.574;2023-06-24T10:39:36;6.22;;;4.82;;
27428;SDS011;14881;48.092;11.574;2023-06-24T10:44:54;5.55;;;5.03;;
27428;SDS011;14881;48.092;11.574;2023-06-24T10:47:21;5.60;;;4.85;;
27428;SDS011;14881;48.092;11.574;2023-06-24T10:49:49;6.50;;;4.75;;
27428;SDS011;14881;48.092;11.574;2023-06-24T10:52:18;5.53;;;4.80;;
27428;SDS011;14881;48.092;11.574;2023-06-24T10:54:45;8.38;;;4.78;;
27428;SDS011;14881;48.092;11.574;2023-06-24T10:57:11;18.13;;;9.50;;
27428;SDS011;14881;48.092;11.574;2023-06-24T10:59:39;5.63;;;4.57;;
27428;SDS011;14881;48.092;11.574;2023-06-24T11:02:07;5.82;;;4.43;;
27428;SDS011;14881;48.092;11.574;2023-06-24T11:04:41;4.82;;;4.35;;
27428;SDS011;14881;48.092;11.574;2023-06-24T11:07:08;6.40;;;5.13;;
27428;SDS011;14881;48.092;11.574;2023-06-24T11:09:36;5.78;;;5.05;;
27428;SDS011;14881;48.092;11.574;2023-06-24T11:12:02;5.32;;;4.72;;
27428;SDS011;14881;48.092;11.574;2023-06-24T11:14:29;6.07;;;4.57;;
27428;SDS011;14881;48.092;11.574;2023-06-24T11:16:55;5.97;;;5.32;;
27428;SDS011;14881;48.092;11.574;2023-06-24T11:19:22;5.70;;;4.75;;
27428;SDS011;14881;48.092;11.574;2023-06-24T11:21:48;9.23;;;5.38;;
27428;SDS011;14881;48.092;11.574;2023-06-24T11:24:15;5.90;;;5.30;;
27428;SDS011;14881;48.092;11.574;2023-06-24T11:26:43;7.05;;;5.10;;
27428;SDS011;14881;48.092;11.574;2023-06-24T11:29:11;4.75;;;4.35;;
27428;SDS011;14881;48.092;11.574;2023-06-24T11:31:38;5.93;;;4.30;;
27428;SDS011;14881;48.092;11.574;2023-06-24T11:34:04;4.75;;;4.35;;
27428;SDS011;14881;48.092;11.574;2023-06-24T11:36:32;5.40;;;4.82;;
27428;SDS011;14881;48.092;11.574;2023-06-24T11:38:58;4.97;;;4.57;;
27428;SDS011;14881;48.092;11.574;2023-06-24T11:41:25;6.45;;;5.43;;
27428;SDS011;14881;48.092;11.574;2023-06-24T11:43:53;4.90;;;4.15;;
27428;SDS011;14881;48.092;11.574;2023-06-24T11:46:23;5.43;;;4.07;;
27428;SDS011;14881;48.092;11.574;2023-06-24T11:48:50;5.22;;;4.43;;
27428;SDS011;14881;48.092;11.574;2023-06-24T11:51:17;4.78;;;4.18;;
27428;SDS011;14881;48.092;11.574;2023-06-24T11:53:43;5.00;;;4.13;;
27428;SDS011;14881;48.092;11.574;2023-06-24T11:56:11;4.88;;;4.25;;
27428;SDS011;14881;48.092;11.574;2023-06-24T11:58:37;6.78;;;5.10;;
27428;SDS011;14881;48.092;11.574;2023-06-24T12:01:06;6.13;;;4.95;;
27428;SDS011;14881;48.092;11.574;2023-06-24T12:03:34;5.63;;;5.10;;
27428;SDS011;14881;48.092;11.574;2023-06-24T12:06:01;4.82;;;4.43;;
27428;SDS011;14881;48.092;11.574;2023-06-24T12:08:27;5.22;;;4.55;;
27428;SDS011;14881;48.092;11.574;2023-06-24T12:11:14;4.93;;;4.43;;
27428;SDS011;14881;48.092;11.574;2023-06-24T12:13:40;13.25;;;4.53;;
27428;SDS011;14881;48.092;11.574;2023-06-24T12:16:07;5.63;;;4.43;;
27428;SDS011;14881;48.092;11.574;2023-06-24T12:18:34;4.53;;;4.13;;
27428;SDS011;14881;48.092;11.574;2023-06-24T12:21:00;6.07;;;4.85;;
27428;SDS011;14881;48.092;11.574;2023-06-24T12:23:27;6.18;;;4.70;;
27428;SDS011;14881;48.092;11.574;2023-06-24T12:25:53;7.05;;;4.70;;
27428;SDS011;14881;48.092;11.574;2023-06-24T12:28:20;5.55;;;4.53;;
27428;SDS011;14881;48.092;11.574;2023-06-24T12:30:46;4.85;;;4.35;;
27428;SDS011;14881;48.092;11.574;2023-06-24T12:33:13;4.75;;;4.18;;
27428;SDS011;14881;48.092;11.574;2023-06-24T12:35:41;5.25;;;4.40;;
27428;SDS011;14881;48.092;11.574;2023-06-24T12:38:08;5.18;;;4.70;;
27428;SDS011;14881;48.092;11.574;2023-06-24T12:40:34;5.30;;;4.72;;
27428;SDS011;14881;48.092;11.574;2023-06-24T12:43:01;4.85;;;4.10;;
27428;SDS011;14881;48.092;11.574;2023-06-24T12:45:28;5.95;;;4.25;;
27428;SDS011;14881;48.092;11.574;2023-06-24T12:47:55;4.65;;;3.90;;
27428;SDS011;14881;48.092;11.574;2023-06-24T12:50:22;5.80;;;4.72;;
27428;SDS011;14881;48.092;11.574;2023-06-24T12:52:48;5.63;;;4.53;;
27428;SDS011;14881;48.092;11.574;2023-06-24T12:55:15;5.13;;;4.72;;
27428;SDS011;14881;48.092;11.574;2023-06-24T12:57:43;5.68;;;4.93;;
27428;SDS011;14881;48.092;11.574;2023-06-24T13:00:10;5.18;;;4.68;;
27428;SDS011;14881;48.092;11.574;2023-06-24T13:02:37;4.78;;;4.30;;
27428;SDS011;14881;48.092;11.574;2023-06-24T13:05:04;4.45;;;4.05;;
27428;SDS011;14881;48.092;11.574;2023-06-24T13:07:32;4.40;;;4.00;;
27428;SDS011;14881;48.092;11.574;2023-06-24T13:09:59;5.53;;;4.95;;
27428;SDS011;14881;48.092;11.574;2023-06-24T13:12:26;4.82;;;4.43;;
27428;SDS011;14881;48.092;11.574;2023-06-24T13:14:52;4.93;;;4.40;;
27428;SDS011;14881;48.092;11.574;2023-06-24T13:17:19;7.25;;;5.50;;
27428;SDS011;14881;48.092;11.574;2023-06-24T13:19:45;5.65;;;5.15;;
27428;SDS011;14881;48.092;11.574;2023-06-24T13:22:11;5.15;;;4.65;;
27428;SDS011;14881;48.092;11.574;2023-06-24T13:24:38;5.70;;;5.20;;
27428;SDS011;14881;48.092;11.574;2023-06-24T13:27:06;5.07;;;4.57;;
27428;SDS011;14881;48.092;11.574;2023-06-24T13:29:33;6.70;;;4.55;;
27428;SDS011;14881;48.092;11.574;2023-06-24T13:31:59;4.28;;;3.83;;
27428;SDS011;14881;48.092;11.574;2023-06-24T13:34:26;5.78;;;4.30;;
27428;SDS011;14881;48.092;11.574;2023-06-24T13:36:52;4.53;;;4.10;;
27428;SDS011;14881;48.092;11.574;2023-06-24T13:39:19;5.70;;;4.70;;
27428;SDS011;14881;48.092;11.574;2023-06-24T13:41:48;4.55;;;4.15;;
27428;SDS011;14881;48.092;11.574;2023-06-24T13:44:15;5.70;;;4.05;;
27428;SDS011;14881;48.092;11.574;2023-06-24T13:46:42;5.85;;;4.30;;
27428;SDS011;14881;48.092;11.574;2023-06-24T13:49:08;4.95;;;4.45;;
27428;SDS011;14881;48.092;11.574;2023-06-24T13:51:35;6.97;;;3.55;;
27428;SDS011;14881;48.092;11.574;2023-06-24T13:54:02;6.18;;;4.20;;
27428;SDS011;14881;48.092;11.574;2023-06-24T13:56:29;4.05;;;3.75;;
27428;SDS011;14881;48.092;11.574;2023-06-24T13:58:56;5.50;;;4.32;;
27428;SDS011;14881;48.092;11.574;2023-06-24T14:01:23;6.05;;;4.18;;
27428;SDS011;14881;48.092;11.574;2023-06-24T14:03:50;4.53;;;4.13;;
27428;SDS011;14881;48.092;11.574;2023-06-24T14:06:18;5.05;;;3.97;;
27428;SDS011;14881;48.092;11.574;2023-06-24T14:08:46;4.50;;;4.10;;
27428;SDS011;14881;48.092;11.574;2023-06-24T14:11:12;5.97;;;4.10;;
27428;SDS011;14881;48.092;11.574;2023-06-24T14:13:39;6.22;;;4.00;;
27428;SDS011;14881;48.092;11.574;2023-06-24T14:16:07;4.47;;;3.95;;
27428;SDS011;14881;48.092;11.574;2023-06-24T14:18:34;5.07;;;4.57;;
27428;SDS011;14881;48.092;11.574;2023-06-24T14:21:01;4.45;;;4.05;;
27428;SDS011;14881;48.092;11.574;2023-06-24T14:23:29;4.68;;;4.20;;
27428;SDS011;14881;48.092;11.574;2023-06-24T14:25:56;5.22;;;4.10;;
27428;SDS011;14881;48.092;11.574;2023-06-24T14:28:23;5.13;;;3.97;;
27428;SDS011;14881;48.092;11.574;2023-06-24T14:30:50;5.20;;;4.15;;
27428;SDS011;14881;48.092;11.574;2023-06-24T14:33:18;5.55;;;4.15;;
27428;SDS011;14881;48.092;11.574;2023-06-24T14:35:44;4.03;;;3.63;;
27428;SDS011;14881;48.092;11.574;2023-06-24T14:38:11;4.10;;;3.70;;
27428;SDS011;14881;48.092;11.574;2023-06-24T14:40:37;5.18;;;4.18;;
27428;SDS011;14881;48.092;11.574;2023-06-24T14:43:05;5.43;;;4.28;;
27428;SDS011;14881;48.092;11.574;2023-06-24T14:45:32;4.47;;;4.07;;